Time;durP1;ratioP1;P1;durP2;ratioP2;P2;SDS_P1;SDS_P2;PMS_P1;PMS_P2;Temp;Humidity;BMP_temperature;BMP_pressure;BME280_temperature;BME280_humidity;BME280_pressure;Samples;Min_cycle;Max_cycle;Signal;HPM_P1;HPM_P2
2022/04/25 00:01:34;;;;;;;20.83;14.30;;;;;;;11.08;77.82;99880.47;4812040;29;20042;-73
2022/04/25 00:04:00;;;;;;;18.20;12.98;;;;;;;11.02;77.64;99875.38;4828711;29;20026;-74
2022/04/25 00:06:25;;;;;;;23.95;14.00;;;;;;;10.99;77.66;99881.53;4811887;29;20027;-73
2022/04/25 00:08:51;;;;;;;20.02;14.20;;;;;;;10.95;77.35;99873.03;4780893;29;20090;-74
2022/04/25 00:11:16;;;;;;;17.77;14.23;;;;;;;10.86;77.61;99866.53;4796884;29;20094;-74
2022/04/25 00:13:42;;;;;;;19.52;14.15;;;;;;;10.88;77.43;99862.31;4781976;29;20027;-73
2022/04/25 00:16:07;;;;;;;19.75;14.30;;;;;;;10.78;77.99;99862.56;4778688;29;20041;-73
2022/04/25 00:18:33;;;;;;;23.35;13.88;;;;;;;10.73;78.04;99863.50;4822541;29;20050;-73
2022/04/25 00:21:00;;;;;;;18.77;14.50;;;;;;;10.65;78.30;99863.41;4811741;29;20042;-73
2022/04/25 00:23:26;;;;;;;19.13;14.38;;;;;;;10.58;78.12;99858.25;4811835;29;20039;-74
2022/04/25 00:25:51;;;;;;;19.73;13.70;;;;;;;10.51;78.30;99861.44;4828107;29;20035;-73
2022/04/25 00:28:16;;;;;;;21.55;14.38;;;;;;;10.50;78.25;99858.97;4796649;29;20392;-73
2022/04/25 00:30:42;;;;;;;19.35;14.70;;;;;;;10.43;78.78;99866.91;4794357;29;20046;-73
2022/04/25 00:33:07;;;;;;;19.15;13.38;;;;;;;10.39;78.39;99861.16;4791304;29;20413;-73
2022/04/25 00:35:33;;;;;;;20.02;14.98;;;;;;;10.31;78.68;99861.03;4781647;29;20053;-73
2022/04/25 00:37:58;;;;;;;21.50;14.95;;;;;;;10.24;78.95;99861.41;4766618;29;20067;-73
2022/04/25 00:40:24;;;;;;;22.27;15.10;;;;;;;10.25;78.58;99871.38;4766840;29;20073;-73
2022/04/25 00:42:50;;;;;;;20.25;14.80;;;;;;;10.21;78.54;99873.94;4781510;29;20030;-73
2022/04/25 00:45:16;;;;;;;22.90;15.15;;;;;;;10.11;79.09;99878.88;4802913;29;20029;-73
2022/04/25 00:47:42;;;;;;;19.23;14.90;;;;;;;10.12;78.76;99875.81;4786721;29;20034;-73
2022/04/25 00:50:08;;;;;;;20.13;14.57;;;;;;;10.06;78.81;99886.16;4781609;29;20045;-73
2022/04/25 00:52:33;;;;;;;22.20;15.07;;;;;;;9.97;79.03;99878.84;4782097;29;20054;-73
2022/04/25 00:55:00;;;;;;;25.75;15.77;;;;;;;9.89;79.44;99883.16;4792338;29;20042;-73
2022/04/25 00:57:26;;;;;;;24.65;16.25;;;;;;;9.83;79.59;99879.66;4787153;29;20045;-73
2022/04/25 00:59:51;;;;;;;22.88;16.05;;;;;;;9.81;79.79;99881.09;4796103;29;20038;-73
2022/04/25 01:02:17;;;;;;;23.52;15.60;;;;;;;9.76;79.76;99878.41;4781259;29;20038;-73
2022/04/25 01:04:43;;;;;;;22.80;16.00;;;;;;;9.71;80.00;99876.53;4811038;29;20030;-73
2022/04/25 01:07:09;;;;;;;21.95;15.88;;;;;;;9.72;79.88;99880.13;4827410;29;20491;-73
2022/04/25 01:09:34;;;;;;;23.90;16.23;;;;;;;9.67;80.17;99880.19;4827008;29;20038;-73
2022/04/25 01:12:00;;;;;;;24.90;16.42;;;;;;;9.63;79.96;99880.81;4827311;29;20042;-73
2022/04/25 01:14:25;;;;;;;23.55;15.52;;;;;;;9.60;79.86;99875.06;4811239;29;20038;-73
2022/04/25 01:16:51;;;;;;;25.42;15.90;;;;;;;9.56;79.90;99876.81;4763296;29;20031;-73
2022/04/25 01:19:17;;;;;;;23.85;15.90;;;;;;;9.55;80.16;99875.13;4774933;29;20038;-73
2022/04/25 01:21:44;;;;;;;25.60;16.92;;;;;;;9.52;80.09;99882.09;4766303;29;20034;-73
2022/04/25 01:29:38;;;;;;;23.17;16.05;;;;;;;9.44;79.71;99879.22;4827219;29;20033;-73
2022/04/25 01:32:04;;;;;;;25.55;16.00;;;;;;;9.39;79.68;99869.88;4817596;29;20449;-73
2022/04/25 01:34:32;;;;;;;24.17;16.30;;;;;;;9.39;79.67;99877.34;4780654;29;20468;-73
2022/04/25 01:36:57;;;;;;;20.65;15.30;;;;;;;9.35;79.86;99873.53;4781307;29;20042;-73
2022/04/25 01:39:23;;;;;;;26.02;16.65;;;;;;;9.31;79.73;99872.50;4795707;29;20705;-73
2022/04/25 01:41:48;;;;;;;23.20;16.08;;;;;;;9.26;79.96;99869.81;4780842;29;20031;-73
2022/04/25 01:44:14;;;;;;;21.52;15.48;;;;;;;9.23;79.90;99862.91;4766181;29;20038;-73
2022/04/25 01:46:39;;;;;;;22.65;15.95;;;;;;;9.24;79.74;99866.50;4795504;29;20043;-73
2022/04/25 01:49:05;;;;;;;20.40;15.52;;;;;;;9.19;79.71;99870.16;4780810;29;20034;-73
2022/04/25 01:51:31;;;;;;;24.10;15.20;;;;;;;9.14;79.57;99862.78;4810600;29;20560;-73
2022/04/25 01:53:57;;;;;;;23.15;16.50;;;;;;;9.12;79.74;99867.78;4777437;29;20038;-73
2022/04/25 01:56:23;;;;;;;23.27;16.70;;;;;;;9.07;79.66;99867.84;4810593;29;20408;-73
2022/04/25 01:58:48;;;;;;;22.27;15.93;;;;;;;9.03;79.88;99866.81;4765827;29;20037;-73
2022/04/25 02:01:14;;;;;;;22.35;15.77;;;;;;;8.99;79.85;99876.84;4765658;29;20086;-73
2022/04/25 02:03:40;;;;;;;23.15;16.00;;;;;;;8.99;80.00;99870.47;4795524;29;20076;-73
2022/04/25 02:06:05;;;;;;;22.55;15.73;;;;;;;8.94;79.82;99871.34;4826587;29;20042;-73
2022/04/25 02:08:31;;;;;;;24.52;15.82;;;;;;;8.91;79.92;99875.59;4805110;29;20030;-73
2022/04/25 02:13:41;;;;;;;23.88;16.77;;;;;;;8.82;80.19;99871.00;4816032;29;20054;-73
2022/04/25 02:16:08;;;;;;;22.92;16.08;;;;;;;8.80;80.28;99876.00;4798694;29;20404;-73
2022/04/25 02:18:34;;;;;;;24.58;17.55;;;;;;;8.72;80.13;99871.97;4799877;29;20616;-73
2022/04/25 02:20:59;;;;;;;24.15;16.00;;;;;;;8.71;80.42;99876.66;4810458;29;20030;-73
2022/04/25 02:23:25;;;;;;;23.33;16.02;;;;;;;8.63;80.51;99871.78;4798543;29;20145;-72
2022/04/25 02:25:50;;;;;;;23.15;16.17;;;;;;;8.64;80.36;99872.63;4798806;29;20030;-73
2022/04/25 02:28:16;;;;;;;24.65;16.30;;;;;;;8.61;80.39;99875.97;4842054;29;20038;-73
2022/04/25 02:30:41;;;;;;;23.15;16.20;;;;;;;8.55;80.39;99872.44;4809637;29;20058;-73
2022/04/25 02:33:07;;;;;;;22.08;15.57;;;;;;;8.55;80.55;99877.97;4807821;29;20050;-73
2022/04/25 02:35:32;;;;;;;25.33;16.95;;;;;;;8.53;80.49;99873.88;4783700;29;20042;-73
2022/04/25 02:37:58;;;;;;;26.27;16.17;;;;;;;8.48;80.69;99881.09;4783147;29;20400;-73
2022/04/25 02:40:23;;;;;;;26.65;16.70;;;;;;;8.43;80.67;99881.16;4783772;29;20041;-73
2022/04/25 02:42:49;;;;;;;24.15;16.80;;;;;;;8.41;80.80;99888.13;4780995;29;20030;-73
2022/04/25 02:45:14;;;;;;;26.55;15.63;;;;;;;8.39;80.74;99879.31;4783189;29;20045;-72
2022/04/25 02:47:41;;;;;;;25.55;16.85;;;;;;;8.38;80.68;99877.59;4783255;29;20030;-73
2022/04/25 02:50:07;;;;;;;23.00;15.85;;;;;;;8.33;80.76;99878.50;4798344;29;20118;-73
2022/04/25 02:52:32;;;;;;;24.27;16.42;;;;;;;8.32;80.70;99879.59;4768243;29;20070;-73
2022/04/25 02:54:58;;;;;;;24.88;15.88;;;;;;;8.29;80.70;99875.47;4783275;29;20495;-73
2022/04/25 02:57:23;;;;;;;22.50;15.77;;;;;;;8.30;80.67;99881.84;4813030;29;20046;-73
2022/04/25 02:59:49;;;;;;;23.83;15.90;;;;;;;8.24;80.67;99875.53;4811677;29;20050;-73
2022/04/25 03:02:15;;;;;;;26.48;16.02;;;;;;;8.20;80.65;99877.25;4829168;29;20396;-73
2022/04/25 03:04:40;;;;;;;25.08;16.00;;;;;;;8.19;80.41;99874.78;4798167;29;20030;-73
2022/04/25 03:07:06;;;;;;;24.17;16.40;;;;;;;8.16;80.54;99875.34;4795480;29;20100;-73
2022/04/25 03:09:31;;;;;;;26.42;16.85;;;;;;;8.15;80.58;99879.25;4782819;29;20065;-73
2022/04/25 03:11:58;;;;;;;23.77;16.38;;;;;;;8.07;80.56;99889.00;4797838;29;20159;-73
2022/04/25 03:14:26;;;;;;;21.90;16.17;;;;;;;8.03;80.79;99893.50;4783294;29;20059;-73
2022/04/25 03:16:51;;;;;;;23.45;15.35;;;;;;;8.03;80.71;99896.25;4787566;29;20391;-73
2022/04/25 03:19:17;;;;;;;23.73;15.77;;;;;;;7.97;81.02;99889.13;4797042;29;20117;-73
2022/04/25 03:21:43;;;;;;;23.83;15.73;;;;;;;7.96;80.79;99885.53;4829007;29;20042;-73
2022/04/25 03:24:08;;;;;;;25.73;16.65;;;;;;;7.96;80.56;99887.47;4812572;29;20035;-73
2022/04/25 03:26:34;;;;;;;24.85;16.73;;;;;;;7.92;81.18;99889.19;4812688;29;20503;-73
2022/04/25 03:28:59;;;;;;;23.45;16.05;;;;;;;7.91;81.24;99888.38;4812646;29;20091;-73
2022/04/25 03:31:25;;;;;;;25.35;16.23;;;;;;;7.82;81.30;99893.66;4795111;29;20039;-73
2022/04/25 03:33:50;;;;;;;21.95;15.90;;;;;;;7.86;80.90;99893.94;4767840;29;20492;-73
2022/04/25 03:36:16;;;;;;;26.00;16.63;;;;;;;7.79;81.25;99891.50;4812355;29;20480;-73
2022/04/25 03:38:42;;;;;;;23.52;16.17;;;;;;;7.79;81.24;99896.19;4828579;29;20035;-73
2022/04/25 03:41:08;;;;;;;26.95;16.20;;;;;;;7.73;81.24;99895.41;4797551;29;20030;-73
2022/04/25 03:43:34;;;;;;;22.17;15.00;;;;;;;7.74;81.56;99904.53;4828798;29;20198;-73
2022/04/25 03:46:02;;;;;;;25.83;15.60;;;;;;;7.74;81.26;99901.78;4797302;29;20038;-73
2022/04/25 03:48:28;;;;;;;26.65;15.70;;;;;;;7.70;81.20;99889.66;4828616;29;20030;-73
2022/04/25 03:50:53;;;;;;;25.08;16.02;;;;;;;7.68;81.12;99892.69;4827316;29;20041;-73
2022/04/25 03:53:19;;;;;;;23.92;15.93;;;;;;;7.60;81.35;99896.94;4796771;29;20041;-73
2022/04/25 03:58:28;;;;;;;24.13;15.40;;;;;;;7.58;81.66;99904.69;4814459;29;20087;-73
2022/04/25 04:00:54;;;;;;;27.75;16.05;;;;;;;7.55;81.78;99898.88;4828262;29;20034;-73
2022/04/25 04:03:19;;;;;;;25.73;15.77;;;;;;;7.55;81.66;99896.13;4767444;29;20027;-73
2022/04/25 04:05:48;;;;;;;23.58;15.70;;;;;;;7.51;81.45;99898.66;4797056;29;20037;-73
2022/04/25 04:08:14;;;;;;;24.60;15.95;;;;;;;7.52;81.67;99902.22;4766663;29;20488;-73
2022/04/25 04:10:40;;;;;;;26.13;15.25;;;;;;;7.48;81.58;99910.28;4823908;29;20030;-73
2022/04/25 04:13:05;;;;;;;20.48;15.18;;;;;;;7.46;81.67;99903.38;4827906;29;20447;-73
2022/04/25 04:15:31;;;;;;;22.30;14.50;;;;;;;7.43;81.58;99906.72;4782928;29;20038;-73
2022/04/25 04:17:57;;;;;;;19.45;13.93;;;;;;;7.41;81.45;99903.41;4799219;29;20100;-73
2022/04/25 04:20:23;;;;;;;24.35;15.60;;;;;;;7.41;81.43;99903.41;4805498;29;20167;-73
2022/04/25 04:22:48;;;;;;;23.55;14.95;;;;;;;7.38;81.46;99902.91;4811051;29;20058;-73
2022/04/25 04:25:14;;;;;;;26.85;15.88;;;;;;;7.30;81.57;99909.03;4811633;29;20488;-73
2022/04/25 04:27:40;;;;;;;22.73;16.00;;;;;;;7.28;81.58;99911.25;4828063;29;20116;-73
2022/04/25 04:30:07;;;;;;;23.25;15.55;;;;;;;7.26;81.40;99919.00;4811289;29;20066;-73
2022/04/25 04:32:33;;;;;;;22.08;15.57;;;;;;;7.24;81.85;99926.72;4795865;29;20035;-73
2022/04/25 04:34:59;;;;;;;24.40;16.17;;;;;;;7.21;82.10;99926.50;4824073;29;20088;-73
2022/04/25 04:37:25;;;;;;;23.95;15.57;;;;;;;7.21;82.13;99923.72;4817694;29;20041;-73
2022/04/25 04:42:38;;;;;;;24.35;15.68;;;;;;;7.17;82.17;99923.47;4814177;29;20031;-73
2022/04/25 04:45:04;;;;;;;23.42;15.77;;;;;;;7.14;81.99;99921.28;4815168;29;20046;-73
2022/04/25 04:47:34;;;;;;;23.13;15.85;;;;;;;7.08;82.29;99928.78;4796355;29;20058;-73
2022/04/25 04:50:00;;;;;;;24.08;15.65;;;;;;;7.04;82.41;99932.38;4796563;29;20548;-73
2022/04/25 04:52:25;;;;;;;26.88;15.50;;;;;;;7.01;82.82;99933.78;4796106;29;20038;-73
2022/04/25 04:54:51;;;;;;;25.17;15.88;;;;;;;6.99;82.74;99936.00;4796013;29;20045;-72
2022/04/25 04:57:16;;;;;;;29.00;16.17;;;;;;;6.99;83.00;99938.75;4811137;29;20038;-73
2022/04/25 04:59:42;;;;;;;24.35;16.20;;;;;;;7.00;83.33;99934.91;4765878;29;20034;-73
2022/04/25 05:02:09;;;;;;;26.85;14.98;;;;;;;6.92;83.24;99933.56;4766435;29;20054;-73
2022/04/25 05:04:34;;;;;;;24.85;15.70;;;;;;;6.96;83.50;99939.31;4781449;29;20095;-73
2022/04/25 05:07:00;;;;;;;27.13;16.35;;;;;;;6.93;83.69;99937.97;4794117;29;20116;-72
2022/04/25 05:09:25;;;;;;;23.05;15.30;;;;;;;6.95;83.73;99940.44;4780836;29;20045;-73
2022/04/25 05:11:51;;;;;;;22.92;15.50;;;;;;;6.91;83.27;99945.72;4766167;29;20041;-73
2022/04/25 05:14:16;;;;;;;20.70;14.15;;;;;;;6.92;83.59;99944.59;4810935;29;20123;-73
2022/04/25 05:16:41;;;;;;;23.35;14.95;;;;;;;6.89;83.67;99947.94;4800206;29;20038;-73
2022/04/25 05:19:08;;;;;;;28.50;16.50;;;;;;;6.90;83.79;99949.56;4809707;29;20038;-73
2022/04/25 05:21:33;;;;;;;27.15;16.50;;;;;;;6.86;84.73;99953.19;4811134;29;20031;-73
2022/04/25 05:23:59;;;;;;;30.77;17.65;;;;;;;6.87;85.08;99955.66;4826081;29;20095;-73
2022/04/25 05:26:24;;;;;;;24.80;15.55;;;;;;;6.88;85.40;99962.84;4810753;29;20038;-73
2022/04/25 05:28:50;;;;;;;28.50;16.63;;;;;;;6.88;86.04;99968.38;4827140;29;20046;-73
2022/04/25 05:31:16;;;;;;;28.45;16.42;;;;;;;6.89;87.21;99978.28;4804418;29;20031;-73
2022/04/25 05:33:41;;;;;;;34.50;18.02;;;;;;;6.93;88.15;99971.09;4810496;29;20081;-73
2022/04/25 05:36:07;;;;;;;30.75;16.70;;;;;;;6.97;88.76;99973.31;4810859;29;20030;-73
2022/04/25 05:38:32;;;;;;;35.85;20.75;;;;;;;6.86;95.20;99972.53;4795533;29;20091;-73
2022/04/25 05:40:58;;;;;;;34.22;18.92;;;;;;;7.00;92.79;99972.75;4826951;29;20092;-73
2022/04/25 05:43:23;;;;;;;27.48;16.15;;;;;;;7.09;89.71;99977.38;4811765;29;20052;-73
2022/04/25 05:45:49;;;;;;;30.25;18.50;;;;;;;7.12;90.51;99979.56;4814134;29;20039;-73
2022/04/25 05:53:42;;;;;;;42.03;20.85;;;;;;;7.29;97.92;99983.91;4830117;29;20038;-73
2022/04/25 05:56:08;;;;;;;38.13;20.20;;;;;;;7.37;99.71;99994.34;4799220;29;20130;-73
2022/04/25 05:58:33;;;;;;;35.42;18.50;;;;;;;7.47;97.87;99999.81;4799223;29;20038;-73
2022/04/25 06:00:59;;;;;;;35.35;20.00;;;;;;;7.57;100.00;99996.97;4814220;29;20038;-73
2022/04/25 06:03:25;;;;;;;39.33;20.60;;;;;;;7.68;100.00;100002.44;4799385;29;20030;-73
2022/04/25 06:05:53;;;;;;;33.95;18.00;;;;;;;7.81;97.95;100002.63;4830239;29;20034;-73
2022/04/25 06:08:18;;;;;;;30.83;18.05;;;;;;;7.94;98.43;100000.28;4813374;29;20172;-73
2022/04/25 06:10:44;;;;;;;34.00;19.60;;;;;;;8.08;99.56;100006.84;4780945;29;20050;-69
2022/04/25 06:13:09;;;;;;;30.75;17.27;;;;;;;8.19;97.93;100008.41;4792132;29;20041;-69
2022/04/25 06:15:35;;;;;;;32.70;18.23;;;;;;;8.31;98.65;100004.41;4781389;29;20047;-69
2022/04/25 06:18:00;;;;;;;41.15;19.60;;;;;;;8.43;98.93;100007.63;4789354;29;20034;-72
2022/04/25 06:20:30;;;;;;;35.63;18.88;;;;;;;8.52;97.73;100011.41;4783948;29;20087;-73
2022/04/25 06:22:59;;;;;;;37.47;18.73;;;;;;;8.66;97.51;100012.38;4799749;29;20065;-73
2022/04/25 06:25:25;;;;;;;34.22;18.27;;;;;;;8.80;96.22;100011.66;4813682;29;20038;-73
2022/04/25 06:27:51;;;;;;;29.92;17.33;;;;;;;8.92;94.29;100007.38;4798540;29;20034;-73
2022/04/25 06:30:16;;;;;;;31.30;16.67;;;;;;;9.07;94.20;100005.53;4782724;29;20030;-73
2022/04/25 06:32:42;;;;;;;34.33;16.90;;;;;;;9.20;93.26;100012.31;4805645;29;20038;-73
2022/04/25 06:35:08;;;;;;;32.03;16.08;;;;;;;9.34;91.59;100016.00;4829453;29;20059;-73
2022/04/25 06:37:34;;;;;;;31.60;16.20;;;;;;;9.46;91.42;100010.00;4798397;29;20172;-73
2022/04/25 06:39:59;;;;;;;33.40;17.25;;;;;;;9.58;91.21;100019.53;4829456;29;20070;-73
2022/04/25 06:42:25;;;;;;;30.40;16.05;;;;;;;9.70;90.32;100013.53;4829475;29;20034;-73
2022/04/25 06:44:51;;;;;;;34.40;16.05;;;;;;;9.83;89.32;100017.47;4812318;29;20043;-73
2022/04/25 06:47:17;;;;;;;27.23;15.15;;;;;;;9.92;89.31;100012.94;4820612;29;20507;-73
2022/04/25 06:49:42;;;;;;;31.67;15.77;;;;;;;10.02;89.18;100015.50;4823727;29;20035;-72
2022/04/25 06:52:09;;;;;;;28.45;15.65;;;;;;;10.14;88.94;100017.00;4811904;29;20040;-73
2022/04/25 06:54:35;;;;;;;31.52;14.18;;;;;;;10.27;86.96;100021.78;4779494;29;20047;-73
2022/04/25 06:57:01;;;;;;;31.42;15.18;;;;;;;10.39;86.86;100013.84;4805619;29;20031;-72
2022/04/25 06:59:26;;;;;;;30.50;16.00;;;;;;;10.50;86.74;100018.06;4797904;29;20083;-73
2022/04/25 07:01:52;;;;;;;31.63;15.38;;;;;;;10.64;87.51;100020.88;4829266;29;20503;-73
2022/04/25 07:04:17;;;;;;;30.92;15.07;;;;;;;10.73;86.18;100030.13;4795445;29;20500;-73
2022/04/25 07:06:44;;;;;;;29.20;14.57;;;;;;;10.90;84.74;100023.97;4812941;29;20053;-73
2022/04/25 07:09:13;;;;;;;27.65;14.43;;;;;;;11.04;84.71;100031.50;4812750;29;20037;-73
2022/04/25 07:11:43;;;;;;;32.50;15.02;;;;;;;11.12;84.13;100025.22;4829198;29;20078;-73
2022/04/25 07:14:12;;;;;;;36.22;16.05;;;;;;;11.23;83.94;100029.44;4817144;29;20117;-73
2022/04/25 07:16:39;;;;;;;29.80;14.50;;;;;;;11.41;83.58;100030.41;4804714;29;20031;-73
2022/04/25 07:19:06;;;;;;;26.08;14.57;;;;;;;11.63;82.42;100029.66;4826333;29;20098;-73
2022/04/25 07:29:52;;;;;;;28.23;14.05;;;;;;;12.09;79.55;100045.31;4828780;29;20057;-74
2022/04/25 07:32:18;;;;;;;30.00;14.25;;;;;;;12.18;79.38;100040.63;4803457;29;20421;-74
2022/04/25 07:34:46;;;;;;;27.55;14.40;;;;;;;12.17;78.87;100046.50;4828539;29;20050;-73
2022/04/25 07:37:12;;;;;;;27.85;14.57;;;;;;;12.22;79.91;100047.19;4794464;29;20034;-73
2022/04/25 07:39:37;;;;;;;32.28;14.15;;;;;;;12.30;79.93;100043.66;4823662;29;20548;-74
2022/04/25 07:42:04;;;;;;;25.48;13.50;;;;;;;12.39;78.91;100048.47;4812280;29;20038;-73
2022/04/25 07:44:30;;;;;;;31.83;14.35;;;;;;;12.42;79.03;100047.81;4828608;29;20070;-73
2022/04/25 07:46:55;;;;;;;27.42;14.00;;;;;;;12.47;78.25;100050.50;4812412;29;20046;-73
2022/04/25 07:49:21;;;;;;;24.75;13.30;;;;;;;12.58;78.79;100049.06;4812040;29;20037;-73
2022/04/25 07:51:48;;;;;;;29.75;13.70;;;;;;;12.75;78.47;100057.53;4812293;29;20428;-73
2022/04/25 07:54:14;;;;;;;27.52;13.38;;;;;;;12.88;77.71;100057.78;4811512;29;20129;-73
2022/04/25 07:56:40;;;;;;;28.17;12.82;;;;;;;13.05;77.39;100057.84;4779403;29;20042;-73
2022/04/25 07:59:05;;;;;;;22.17;12.30;;;;;;;13.12;75.89;100063.78;4796373;29;20046;-74
2022/04/25 08:01:31;;;;;;;25.23;12.35;;;;;;;13.27;75.92;100065.34;4796966;29;20037;-73
2022/04/25 08:03:57;;;;;;;25.50;11.95;;;;;;;13.39;75.66;100064.72;4797061;29;20034;-73
2022/04/25 08:06:22;;;;;;;25.27;12.43;;;;;;;13.54;74.27;100064.28;4811265;29;20041;-73
2022/04/25 08:08:49;;;;;;;22.02;11.00;;;;;;;13.71;74.57;100065.47;4805953;29;20173;-73
2022/04/25 08:11:15;;;;;;;24.92;12.00;;;;;;;13.91;74.50;100067.59;4828317;29;20070;-74
2022/04/25 08:19:09;;;;;;;24.98;11.57;;;;;;;14.39;72.33;100058.22;4812975;29;20042;-73
2022/04/25 08:21:36;;;;;;;21.75;11.65;;;;;;;14.58;70.77;100065.47;4796956;29;20461;-73
2022/04/25 08:24:02;;;;;;;19.15;10.38;;;;;;;14.66;70.90;100059.03;4796880;29;20369;-73
2022/04/25 08:26:28;;;;;;;19.15;11.25;;;;;;;14.76;69.23;100067.06;4796757;29;20038;-73
2022/04/25 08:28:54;;;;;;;25.52;11.15;;;;;;;14.80;68.97;100073.63;4827959;29;20042;-73
2022/04/25 08:31:21;;;;;;;17.20;10.05;;;;;;;14.93;69.38;100078.22;4802831;29;20039;-73
2022/04/25 08:33:48;;;;;;;22.80;10.77;;;;;;;14.99;67.51;100067.66;4795743;29;20052;-73
2022/04/25 08:36:16;;;;;;;20.80;10.35;;;;;;;15.10;68.14;100079.28;4781352;29;20042;-73
2022/04/25 08:38:43;;;;;;;20.05;9.77;;;;;;;15.26;67.75;100077.56;4811830;29;20590;-73
2022/04/25 08:41:14;;;;;;;18.40;9.98;;;;;;;15.44;65.97;100077.50;4827710;29;20026;-73
2022/04/25 08:43:40;;;;;;;19.75;9.68;;;;;;;15.52;66.06;100073.84;4827777;29;20038;-73
2022/04/25 08:46:07;;;;;;;22.40;9.98;;;;;;;15.48;65.97;100076.47;4811339;29;20038;-73
2022/04/25 08:48:33;;;;;;;29.38;11.02;;;;;;;15.68;64.47;100076.84;4781957;29;20042;-73
2022/04/25 08:50:59;;;;;;;19.92;10.07;;;;;;;15.90;64.83;100084.16;4811489;29;20091;-73
2022/04/25 08:53:24;;;;;;;21.85;9.98;;;;;;;15.94;63.87;100088.75;4817662;29;20033;-73
2022/04/25 08:55:50;;;;;;;22.70;10.88;;;;;;;16.01;64.28;100083.41;4795063;29;20031;-73
2022/04/25 08:58:16;;;;;;;20.98;10.10;;;;;;;16.05;64.23;100089.16;4794395;29;20549;-73
2022/04/25 09:00:41;;;;;;;22.58;11.45;;;;;;;16.00;64.81;100089.34;4806041;29;20030;-73
2022/04/25 09:03:07;;;;;;;22.00;10.50;;;;;;;16.08;64.17;100094.06;4811030;29;20101;-74
2022/04/25 09:05:36;;;;;;;23.50;11.20;;;;;;;16.08;64.44;100092.09;4778075;29;20034;-74
2022/04/25 09:08:01;;;;;;;20.70;11.38;;;;;;;16.03;63.29;100099.88;4791874;29;20142;-73
2022/04/25 09:10:27;;;;;;;20.35;10.85;;;;;;;16.00;63.47;100101.38;4795970;29;20026;-73
2022/04/25 09:12:53;;;;;;;26.55;12.40;;;;;;;16.11;62.12;100095.38;4795876;29;20037;-73
2022/04/25 09:15:22;;;;;;;20.92;11.43;;;;;;;16.12;62.37;100097.00;4799533;29;20040;-73
2022/04/25 09:17:48;;;;;;;18.27;10.73;;;;;;;16.24;62.97;100105.47;4807557;29;20043;-73
2022/04/25 09:20:14;;;;;;;21.02;10.80;;;;;;;16.18;62.23;100099.25;4810577;29;20095;-73
2022/04/25 09:22:39;;;;;;;22.13;10.90;;;;;;;16.33;61.12;100102.63;4795850;29;20030;-73
2022/04/25 09:25:11;;;;;;;21.05;11.90;;;;;;;16.41;61.06;100099.75;4810803;29;20031;-73
2022/04/25 09:27:37;;;;;;;16.73;9.75;;;;;;;16.59;61.66;100110.78;4827216;29;20042;-73
2022/04/25 09:30:24;;;;;;;20.45;10.52;;;;;;;16.85;60.52;100111.34;4810946;29;20034;-73
2022/04/25 09:32:52;;;;;;;21.95;11.35;;;;;;;16.81;57.80;100112.41;4826710;29;20046;-73
2022/04/25 09:35:34;;;;;;;17.67;10.65;;;;;;;16.93;58.30;100113.25;4795737;29;20118;-71
2022/04/25 09:38:04;;;;;;;19.50;10.83;;;;;;;17.00;59.62;100114.69;4810643;29;20034;-73
2022/04/25 09:40:33;;;;;;;19.13;9.35;;;;;;;17.15;59.01;100109.22;4827304;29;20099;-72
2022/04/25 09:43:13;;;;;;;22.02;11.77;;;;;;;17.29;57.53;100122.09;4781326;29;20056;-72
2022/04/25 09:45:42;;;;;;;19.33;10.80;;;;;;;17.39;56.19;100118.84;4793546;29;20031;-72
2022/04/25 09:48:18;;;;;;;17.20;10.10;;;;;;;17.49;57.13;100121.16;4811408;29;20034;-72
2022/04/25 09:50:59;;;;;;;20.40;10.93;;;;;;;17.50;56.20;100116.41;4826785;29;20446;-72
2022/04/25 09:53:38;;;;;;;19.30;10.63;;;;;;;17.47;56.39;100117.91;4812322;29;20045;-73
2022/04/25 09:56:34;;;;;;;18.65;10.55;;;;;;;17.53;56.10;100119.31;4800787;29;20053;-73
2022/04/25 09:59:09;;;;;;;22.00;10.80;;;;;;;17.61;55.75;100112.78;4813498;29;20134;-73
2022/04/25 10:01:36;;;;;;;13.63;9.13;;;;;;;17.74;54.44;100122.00;4819164;29;20118;-73
2022/04/25 10:04:02;;;;;;;15.15;8.98;;;;;;;17.79;54.33;100112.56;4822755;29;20037;-73
2022/04/25 10:06:34;;;;;;;17.10;8.98;;;;;;;17.92;54.20;100111.38;4780815;29;20045;-73
2022/04/25 10:09:01;;;;;;;15.40;9.05;;;;;;;17.93;53.91;100123.44;4780310;29;20046;-73
2022/04/25 10:11:26;;;;;;;16.83;9.18;;;;;;;17.99;54.55;100122.00;4779157;29;20393;-73
2022/04/25 10:13:52;;;;;;;17.25;8.27;;;;;;;17.96;52.14;100122.72;4788495;29;20030;-73
2022/04/25 10:16:21;;;;;;;15.82;8.27;;;;;;;18.03;53.01;100120.94;4795322;29;20065;-73
2022/04/25 10:18:47;;;;;;;17.83;9.20;;;;;;;18.04;51.99;100125.38;4810411;29;20030;-73
2022/04/25 10:21:14;;;;;;;15.40;7.47;;;;;;;17.99;52.43;100122.00;4795223;29;20046;-73
2022/04/25 10:23:40;;;;;;;14.52;7.15;;;;;;;17.99;52.47;100125.63;4795430;29;20030;-73
2022/04/25 10:26:05;;;;;;;13.20;7.88;;;;;;;18.10;51.27;100128.78;4795307;29;20163;-73
2022/04/25 10:28:54;;;;;;;16.55;7.07;;;;;;;18.16;50.57;100129.34;4826563;29;20038;-73
2022/04/25 10:31:21;;;;;;;15.10;7.03;;;;;;;18.15;49.14;100125.72;4828605;29;20043;-73
2022/04/25 10:33:58;;;;;;;11.82;6.72;;;;;;;18.16;50.40;100132.16;4783340;29;20050;-73
2022/04/25 10:36:38;;;;;;;11.50;5.97;;;;;;;18.32;49.12;100130.25;4767728;29;20033;-75
2022/04/25 10:39:13;;;;;;;14.98;6.40;;;;;;;18.31;49.04;100128.63;4828860;29;20121;-75
2022/04/25 10:44:29;;;;;;;12.88;6.30;;;;;;;18.33;48.85;100134.72;4816043;29;20065;-75
2022/04/25 10:47:09;;;;;;;18.08;6.15;;;;;;;18.34;47.36;100133.53;4823166;29;20042;-74
2022/04/25 10:49:53;;;;;;;11.43;5.28;;;;;;;18.37;48.51;100138.44;4813300;29;20053;-74
2022/04/25 10:52:33;;;;;;;13.05;6.15;;;;;;;18.52;48.75;100134.84;4829767;29;20125;-74
2022/04/25 10:55:31;;;;;;;15.20;7.70;;;;;;;18.39;48.37;100141.72;4827081;29;20484;-74
2022/04/25 10:58:03;;;;;;;13.75;6.78;;;;;;;18.57;48.81;100142.25;4813132;29;20043;-75
2022/04/25 11:00:38;;;;;;;13.15;6.80;;;;;;;18.61;47.86;100137.56;4812967;29;20044;-76
2022/04/25 11:03:14;;;;;;;15.63;6.07;;;;;;;18.60;48.00;100135.91;4792730;29;20026;-75
2022/04/25 11:05:40;;;;;;;15.30;6.32;;;;;;;18.68;48.68;100137.75;4798245;29;20043;-75
2022/04/25 11:08:21;;;;;;;15.38;6.43;;;;;;;18.67;48.47;100135.31;4812733;29;20044;-75
2022/04/25 11:10:47;;;;;;;12.93;6.03;;;;;;;18.76;47.68;100138.81;4831302;29;20164;-73
2022/04/25 11:13:13;;;;;;;12.85;5.90;;;;;;;18.84;46.38;100135.00;4814328;29;20035;-73
2022/04/25 11:15:38;;;;;;;12.52;5.75;;;;;;;18.84;47.01;100143.44;4779430;29;20130;-73
2022/04/25 11:18:35;;;;;;;13.18;5.43;;;;;;;18.76;46.96;100147.25;4812359;29;20085;-73
2022/04/25 11:21:17;;;;;;;12.65;4.60;;;;;;;18.84;45.55;100149.09;4812515;29;20039;-73
2022/04/25 11:23:45;;;;;;;10.73;3.75;;;;;;;18.86;42.84;100148.69;4828476;29;20545;-73
2022/04/25 11:26:36;;;;;;;9.07;3.75;;;;;;;18.92;43.94;100142.47;4828880;29;20049;-73
2022/04/25 11:29:08;;;;;;;9.07;3.72;;;;;;;18.88;45.36;100147.16;4825159;29;20045;-73
2022/04/25 11:31:38;;;;;;;9.88;4.05;;;;;;;18.91;45.16;100140.81;4811532;29;20053;-73
2022/04/25 11:34:04;;;;;;;10.05;4.00;;;;;;;19.03;44.19;100147.56;4814532;29;20086;-73
2022/04/25 11:36:31;;;;;;;8.82;3.75;;;;;;;18.93;43.20;100143.28;4781399;29;20134;-74
2022/04/25 11:41:41;;;;;;;9.50;3.70;;;;;;;18.93;45.00;100143.28;4790996;29;20035;-73
2022/04/25 11:44:07;;;;;;;11.35;4.30;;;;;;;19.00;47.05;100145.47;4828506;29;20031;-73
2022/04/25 11:46:33;;;;;;;9.70;4.05;;;;;;;18.96;45.05;100143.38;4779748;29;20479;-73
2022/04/25 11:48:59;;;;;;;9.57;4.20;;;;;;;19.07;46.01;100140.88;4778729;29;20073;-73
2022/04/25 11:51:32;;;;;;;11.98;4.13;;;;;;;19.11;45.34;100150.25;4772469;29;20042;-73
2022/04/25 11:54:00;;;;;;;9.40;3.72;;;;;;;19.31;45.56;100147.53;4766178;29;20042;-73
2022/04/25 11:56:26;;;;;;;8.52;3.80;;;;;;;19.41;45.38;100147.78;4827543;29;20123;-73
2022/04/25 11:58:52;;;;;;;10.82;3.90;;;;;;;19.27;44.13;100147.44;4828786;29;20038;-73